Date,TemperatureHighF,TemperatureAvgF,TemperatureLowF,DewpointHighF,DewpointAvgF,DewpointLowF,HumidityHigh,HumidityAvg,HumidityLow,PressureMaxIn,PressureMinIn,WindSpeedMaxMPH,WindSpeedAvgMPH,GustSpeedMaxMPH,PrecipitationSumIn
2013-1-1,55,45,40,48,40,36,88,80,66,30.22,30.12,0,0,0,0.00
2013-1-2,58,46,37,47,38,32,83,73,56,30.18,30.07,0,0,0,0.00
2013-1-3,55,46,38,45,39,32,81,76,67,30.20,30.10,0,0,0,0.00
2013-1-4,58,48,40,47,40,34,80,73,58,30.22,30.13,0,0,0,0.00
2013-1-5,54,49,45,50,45,39,91,86,79,30.23,30.05,0,0,0,0.58
2013-1-6,51,48,43,48,45,39,93,90,86,30.15,30.00,0,0,0,0.07
2013-1-7,54,47,40,50,43,38,92,88,83,30.22,30.10,0,0,0,0.01
2013-1-8,59,50,43,54,46,40,92,86,79,30.17,30.07,0,0,0,0.00
2013-1-9,54,49,44,50,45,40,88,85,82,30.09,29.96,0,0,0,0.02
2013-1-10,53,45,40,45,38,35,89,79,64,30.15,30.02,0,0,0,0.02
2013-1-11,53,44,36,42,37,32,86,79,64,30.22,30.09,0,0,0,0.00
2013-1-12,56,44,38,45,37,33,85,77,65,30.20,30.09,0,0,0,0.00
2013-1-13,50,41,34,38,32,28,82,70,54,30.21,30.10,0,0,0,0.00
2013-1-14,54,42,36,33,28,24,69,58,42,30.35,30.15,0,0,0,0.00
2013-1-15,52,43,35,38,31,27,73,64,46,30.42,30.35,0,0,0,0.00
2013-1-16,59,46,37,44,36,30,77,67,50,30.36,30.18,0,0,0,0.00
2013-1-17,67,52,41,50,38,34,76,62,42,30.19,30.07,0,0,0,0.00
2013-1-18,66,53,44,50,38,34,70,58,37,30.15,30.06,0,0,0,0.00
2013-1-19,67,53,44,49,38,34,68,58,38,30.16,30.08,0,0,0,0.00
2013-1-20,68,54,44,48,37,31,64,55,36,30.15,30.04,0,0,0,0.00
2013-1-21,67,53,43,45,36,30,64,53,32,30.11,30.00,0,0,0,0.00
2013-1-22,65,53,44,45,37,31,60,53,39,30.05,29.96,0,0,0,0.00
2013-1-23,56,53,50,48,43,36,85,68,56,30.03,29.92,0,0,0,0.04
2013-1-24,55,54,52,53,50,47,91,88,85,30.13,29.99,0,0,0,0.25
2013-1-25,67,59,53,62,55,50,93,87,78,30.14,29.98,0,0,0,0.00
2013-1-26,59,52,45,53,46,39,90,79,60,30.06,29.95,0,0,0,0.01
2013-1-27,56,48,40,46,40,36,88,75,62,30.13,30.04,0,0,0,0.00
2013-1-28,59,49,41,47,41,36,86,75,58,30.25,30.12,0,0,0,0.00
2013-1-29,58,49,43,48,42,38,86,78,68,30.30,30.21,0,0,0,0.00
2013-1-30,62,51,43,50,44,39,88,76,62,30.31,30.21,0,0,0,0.00
2013-1-31,65,53,43,52,44,37,82,72,56,30.23,30.12,0,0,0,0.00
2013-2-1,68,53,45,56,45,40,84,76,59,30.19,30.07,0,0,0,0.00
2013-2-2,58,50,45,51,45,41,87,83,77,30.24,30.16,0,0,0,0.00
2013-2-3,57,50,45,51,44,41,88,82,75,30.21,30.09,0,0,0,0.00
2013-2-4,59,50,42,52,44,38,87,81,73,30.13,30.01,0,0,0,0.00
2013-2-5,56,50,46,48,44,41,87,82,74,30.11,30.02,0,0,0,0.00
2013-2-6,60,49,41,50,42,36,87,78,69,30.15,30.08,0,0,0,0.00
2013-2-7,54,47,40,48,41,35,85,79,64,30.15,29.97,0,0,0,0.01
2013-2-8,53,46,41,44,40,36,88,79,65,29.97,29.89,0,0,0,0.02
2013-2-9,57,46,36,46,38,31,84,75,61,30.06,29.95,0,0,0,0.00
2013-2-10,58,47,37,46,39,31,80,74,61,30.07,29.97,0,0,0,0.00
2013-2-11,60,48,39,48,40,33,81,73,61,30.21,30.02,0,0,0,0.00
2013-2-12,61,49,41,48,40,35,83,71,57,30.31,30.21,0,0,0,0.00
2013-2-13,62,50,40,51,41,35,82,71,55,30.30,30.17,0,0,0,0.00
2013-2-14,68,54,43,52,43,37,81,67,52,30.19,30.08,0,0,0,0.00
2013-2-15,73,59,46,53,43,38,75,58,34,30.20,30.13,0,0,0,0.00
2013-2-16,71,58,49,51,42,38,73,57,39,30.17,30.00,0,0,0,0.00
2013-2-17,58,51,44,48,43,37,80,74,67,30.02,29.93,0,0,0,0.00
2013-2-18,52,48,44,45,41,38,84,77,68,30.02,29.95,0,0,0,0.00
2013-2-19,49,45,39,44,40,34,88,83,77,29.96,29.73,0,0,0,0.35
2013-2-20,59,47,36,47,39,32,87,74,54,30.04,29.79,0,0,0,0.00
2013-2-21,59,49,39,46,38,34,85,68,49,30.14,30.02,0,0,0,0.00
2013-2-22,54,42,39,44,35,32,79,75,68,30.20,30.13,0,0,0,0.00
2013-2-23,62,53,44,46,40,34,81,64,49,30.20,30.10,0,0,0,0.00
2013-2-24,63,52,41,40,33,29,70,51,34,30.22,30.09,0,0,0,0.00
2013-2-25,61,50,39,46,38,30,75,63,52,30.23,30.11,0,0,0,0.00
2013-2-26,66,52,40,48,37,32,77,59,33,30.17,30.07,0,0,0,0.00
2013-2-27,68,53,41,48,38,31,72,58,33,30.33,30.16,0,0,0,0.00
2013-2-28,66,55,45,52,45,38,79,70,60,30.40,30.32,0,0,0,0.00
2013-3-1,73,60,48,57,49,43,84,69,52,30.38,30.17,0,0,0,0.00
2013-3-2,69,58,52,53,48,45,80,69,49,30.19,30.04,0,0,0,0.00
2013-3-3,62,54,50,53,48,44,84,79,71,30.08,30.01,0,0,0,0.00
2013-3-4,59,52,48,49,45,42,81,76,68,30.11,30.01,0,0,0,0.00
2013-3-5,54,50,47,45,43,41,84,77,69,30.05,29.89,0,0,0,0.23
2013-3-6,56,50,45,49,45,40,91,83,75,30.05,29.89,0,0,0,0.24
2013-3-7,56,48,42,48,43,38,96,82,64,29.97,29.81,0,0,0,0.23
2013-3-8,61,51,45,55,45,42,99,81,61,30.05,29.79,0,0,0,0.03
2013-3-9,65,55,48,56,45,-38,99,74,1,30.26,30.05,0,0,0,0.00
2013-3-10,103,58,46,100,49,-41,99,81,1,30.30,30.21,0,0,0,0.00
2013-3-11,139,80,53,100,38,-39,99,62,1,30.23,30.06,0,0,0,0.00
2013-3-12,139,119,77,100,58,-23,99,61,1,30.10,30.01,0,0,0,0.00
2013-3-13,123,123,123,100,100,100,99,99,99,30.10,30.02,0,0,0,0.00
2013-3-14,123,103,54,100,84,48,99,91,65,30.11,30.04,0,0,0,0.00
2013-3-15,69,58,48,52,47,41,79,69,54,30.08,30.00,0,0,0,0.00
2013-3-16,67,56,48,56,49,43,87,77,59,30.06,29.99,0,0,0,0.00
2013-3-17,67,56,46,53,46,40,83,71,51,30.10,30.00,0,0,0,0.00
2013-3-18,62,53,45,52,46,38,81,75,69,30.09,30.00,0,0,0,0.00
2013-3-19,71,57,48,52,47,41,84,70,46,30.10,30.01,0,0,0,0.09
2013-3-20,63,57,54,56,52,49,89,83,72,30.10,30.03,0,0,0,0.01
2013-3-21,68,56,46,52,45,40,84,68,46,30.08,29.95,0,0,0,0.00
2013-3-22,70,56,43,46,37,33,78,53,26,30.04,29.96,0,0,0,0.00
2013-3-23,68,55,43,47,40,33,69,57,39,30.08,29.98,0,0,0,0.00
2013-3-24,68,56,45,51,44,36,74,64,46,30.05,29.93,0,0,0,0.00
2013-3-25,64,54,46,51,44,39,82,71,54,30.00,29.90,0,0,0,0.00
2013-3-26,66,56,47,52,46,41,81,71,60,29.97,29.88,0,0,0,0.00
2013-3-27,67,57,50,56,50,44,86,78,65,30.00,29.92,0,0,0,0.00
2013-3-28,66,58,53,59,53,48,91,85,74,30.05,29.98,0,0,0,0.09
2013-3-29,70,58,49,60,52,45,91,79,65,30.05,30.00,0,0,0,0.00
2013-3-30,66,57,53,57,52,50,91,84,68,30.06,29.98,0,0,0,0.47
2013-3-31,64,58,54,58,54,51,92,86,76,30.05,29.97,0,0,0,0.00
2013-4-1,65,58,52,58,53,48,93,84,70,30.12,30.02,0,0,0,0.35
2013-4-2,70,58,48,58,51,44,90,79,60,30.14,30.03,0,0,0,0.00
2013-4-3,72,58,49,59,51,45,89,79,61,30.10,29.96,0,0,0,0.00
2013-4-4,58,55,52,56,52,48,92,90,84,30.09,30.00,0,0,0,0.31
2013-4-5,68,60,55,60,54,49,92,83,70,30.15,30.07,0,0,0,0.00
2013-4-6,67,57,50,59,52,46,89,82,71,30.17,30.08,0,0,0,0.00
2013-4-7,68,57,50,59,51,46,89,80,64,30.15,29.86,0,0,0,0.08
2013-4-8,67,56,48,50,43,41,86,64,39,29.97,29.79,0,0,0,0.05
2013-4-9,74,60,46,45,41,39,76,53,29,30.02,29.95,0,0,0,0.00
2013-4-10,80,64,50,56,48,42,77,58,37,30.13,30.00,0,0,0,0.00
2013-4-11,69,60,51,54,49,44,79,69,57,30.05,29.83,0,0,0,0.00
2013-4-12,69,56,46,54,47,40,83,71,54,29.89,29.81,0,0,0,0.00
2013-4-13,68,56,48,54,45,40,84,68,46,29.89,29.80,0,0,0,0.00
2013-4-14,70,56,45,49,43,39,79,65,39,29.90,29.82,0,0,0,0.00
2013-4-15,63,54,48,47,41,35,81,63,44,29.93,29.84,0,0,0,0.00
2013-4-16,69,55,43,47,38,34,75,55,33,30.08,29.91,0,0,0,0.00
2013-4-17,71,59,46,39,35,32,60,42,26,30.20,30.08,0,0,0,0.00
2013-4-18,74,59,46,51,42,34,69,54,34,30.22,30.13,0,0,0,0.00
2013-4-19,73,59,49,52,45,38,73,61,42,30.20,30.05,0,0,0,0.00
2013-4-20,80,62,49,55,48,42,83,64,37,30.06,29.92,0,0,0,0.00
2013-4-21,81,64,50,56,49,42,75,61,37,29.98,29.88,0,0,0,0.00
2013-4-22,71,60,54,55,49,44,79,66,54,29.94,29.86,0,0,0,0.00
2013-4-23,64,56,51,54,50,47,85,79,69,29.95,29.84,0,0,0,0.00
2013-4-24,62,55,52,53,49,47,85,80,71,29.94,29.80,0,0,0,0.00
2013-4-25,70,59,49,55,50,44,86,72,55,30.09,29.94,0,0,0,0.00
2013-4-26,71,58,49,57,50,44,86,74,59,30.19,30.09,0,0,0,0.00
2013-4-27,72,59,50,57,50,45,84,72,53,30.18,30.05,0,0,0,0.00
2013-4-28,71,60,52,57,51,47,85,74,59,30.05,29.86,0,0,0,0.00
2013-4-29,73,58,52,60,51,47,86,75,59,29.87,29.75,0,0,0,0.00
2013-4-30,73,61,51,58,51,45,84,70,54,29.82,29.75,0,0,0,0.00
2013-5-1,68,59,51,56,50,44,83,73,60,30.05,29.81,0,0,0,0.00
2013-5-2,83,66,54,58,52,45,80,62,37,30.09,30.04,0,0,0,0.00
2013-5-3,88,68,55,52,47,42,71,51,21,30.06,29.78,0,0,0,0.00
2013-5-4,64,58,55,53,50,47,79,73,66,29.78,29.64,0,0,0,0.00
2013-5-5,68,59,54,54,51,48,80,74,59,29.77,29.62,0,0,0,0.00
2013-5-6,66,60,57,55,52,51,81,76,68,29.92,29.77,0,0,0,0.00
2013-5-7,72,62,56,57,52,48,82,70,54,30.01,29.90,0,0,0,0.00
2013-5-8,72,61,53,57,50,47,83,70,46,30.09,30.00,0,0,0,0.00
2013-5-9,70,60,54,56,51,47,79,71,58,30.12,30.02,0,0,0,0.00
2013-5-10,73,61,53,58,52,46,82,72,57,30.13,30.04,0,0,0,0.00
2013-5-11,81,62,52,61,52,46,86,72,48,30.09,30.01,0,0,0,0.00
2013-5-12,78,64,54,61,54,48,84,71,52,30.08,29.96,0,0,0,0.00
2013-5-13,77,63,52,59,52,46,85,69,48,30.04,29.91,0,0,0,0.00
2013-5-14,69,61,56,56,52,46,80,71,60,30.00,29.91,0,0,0,0.00
2013-5-15,74,60,49,55,48,42,82,66,43,30.03,29.97,0,0,0,0.00
2013-5-16,72,60,54,60,52,47,86,75,63,30.00,29.90,0,0,0,0.01
2013-5-17,76,61,50,56,48,43,82,64,40,30.02,29.92,0,0,0,0.00
2013-5-18,73,62,49,54,49,42,79,64,45,30.08,30.01,0,0,0,0.00
2013-5-19,82,64,51,58,50,44,80,64,37,30.05,29.89,0,0,0,0.00
2013-5-20,87,67,52,57,49,43,76,57,27,29.92,29.84,0,0,0,0.01
2013-5-21,77,61,52,56,46,40,79,60,27,29.94,29.87,0,0,0,0.00
2013-5-22,72,57,46,40,38,33,69,52,29,29.92,29.84,0,0,0,0.00
2013-5-23,71,58,48,48,42,39,71,57,38,29.94,29.86,0,0,0,0.00
2013-5-24,74,58,45,52,43,38,77,59,30,29.94,29.86,0,0,0,0.00
2013-5-25,71,58,47,52,45,39,78,64,42,29.99,29.92,0,0,0,0.00
2013-5-26,74,62,53,57,50,45,81,67,46,30.06,29.97,0,0,0,0.00
2013-5-27,68,60,52,57,52,45,82,74,64,30.06,29.93,0,0,0,0.00
2013-5-28,78,65,58,62,55,48,85,70,47,29.94,29.80,0,0,0,0.00
2013-5-29,78,64,54,60,51,45,80,65,44,29.88,29.63,0,0,0,0.00
2013-5-30,58,57,57,45,45,45,63,63,63,29.82,29.82,0,0,0,0.00
2013-5-31,79,64,57,56,49,45,70,58,43,29.97,29.82,0,0,0,0.00
2013-6-1,80,64,52,59,51,46,81,65,42,29.92,29.76,0,0,0,0.00
2013-6-2,69,60,53,56,51,46,82,71,60,29.78,29.71,0,0,0,0.00
2013-6-3,65,59,55,54,51,48,83,76,65,29.85,29.74,0,0,0,0.00
2013-6-4,67,58,52,57,51,46,84,77,67,29.95,29.83,0,0,0,0.00
2013-6-5,69,59,52,57,51,46,86,75,62,29.97,29.91,0,0,0,0.00
2013-6-6,69,60,55,57,52,49,82,75,62,29.94,29.86,0,0,0,0.00
2013-6-7,72,61,54,59,53,50,86,77,62,29.89,29.74,0,0,0,0.00
2013-6-8,68,59,54,58,53,50,86,81,70,29.84,29.74,0,0,0,0.01
2013-6-9,63,60,57,58,55,53,91,85,79,29.88,29.81,0,0,0,0.03
2013-6-10,70,63,58,57,54,51,80,72,62,29.94,29.84,0,0,0,0.00
2013-6-11,74,64,56,60,54,50,82,72,59,29.95,29.87,0,0,0,0.00
2013-6-12,75,62,52,59,50,42,86,66,41,30.00,29.88,0,0,0,0.00
2013-6-13,78,63,49,57,49,40,79,61,42,30.06,29.96,0,0,0,0.00
2013-6-14,87,66,51,58,50,44,78,59,30,29.97,29.78,0,0,0,0.00
2013-6-15,68,60,55,55,51,47,81,72,60,29.99,29.83,0,0,0,0.00
2013-6-16,78,64,55,58,52,49,80,66,40,30.06,29.99,0,0,0,0.00
2013-6-17,77,60,52,58,50,45,79,72,53,30.06,30.02,0,0,0,0.00
2013-6-21,58,58,58,48,48,48,70,69,69,29.92,29.92,0,0,0,0.00
2013-6-22,79,64,51,59,51,44,80,66,44,29.92,29.83,0,0,1,0.00
2013-6-23,68,62,58,60,55,50,85,79,73,29.88,29.81,1,0,2,0.00
2013-6-24,61,60,60,58,57,56,91,89,85,29.91,29.78,0,0,2,0.07
2013-6-25,65,61,59,63,59,56,93,92,91,29.99,29.90,0,0,1,0.11
2013-6-26,86,70,61,72,63,57,94,79,55,30.02,29.92,1,0,6,0.00
2013-6-27,87,70,61,68,60,55,87,70,48,30.02,29.97,0,0,0,0.00
2013-6-28,88,71,61,64,58,54,78,64,43,29.99,29.88,0,0,0,0.00
2013-6-29,86,70,59,65,57,52,80,66,43,29.91,29.80,0,0,0,0.00
2013-6-30,83,68,57,63,56,51,83,68,49,29.84,29.75,0,0,0,0.00
2013-7-1,81,67,57,63,57,52,84,70,53,29.87,29.78,0,0,0,0.00
2013-7-2,82,68,59,64,58,54,84,70,51,29.94,29.82,0,0,0,0.00
2013-7-3,78,66,60,63,58,55,85,74,59,29.92,29.77,0,0,0,0.00
2013-7-4,76,66,60,62,58,55,86,76,62,29.79,29.72,5,0,5,0.00
2013-7-5,74,65,59,60,56,51,84,72,57,29.81,29.74,2,0,2,0.00
2013-7-6,69,61,58,57,53,51,83,75,65,29.81,29.76,1,0,1,0.00
2013-7-7,68,61,56,57,53,51,83,76,66,29.86,29.78,0,0,0,0.00
2013-7-8,73,63,57,59,54,52,83,74,59,29.96,29.85,5,0,5,0.00
2013-7-9,82,65,56,63,55,50,86,72,47,29.99,29.91,5,1,5,0.00
2013-7-10,74,64,57,61,55,53,86,75,62,29.98,29.89,6,0,6,0.00
2013-7-11,72,62,57,58,54,51,85,75,60,29.94,29.88,6,1,6,0.00
2013-7-12,75,62,56,60,54,50,83,73,57,29.93,29.87,5,0,5,0.00
2013-7-13,74,62,55,60,54,50,85,75,59,29.95,29.89,5,1,5,0.00
2013-7-14,75,62,56,60,54,51,85,75,57,29.98,29.88,8,1,8,0.00
2013-7-15,71,61,56,58,54,51,85,76,62,29.92,29.82,6,1,6,0.00
2013-7-16,72,63,58,58,55,52,87,76,62,30.00,29.86,7,1,7,0.01
2013-7-17,78,65,55,62,55,49,84,71,55,30.06,29.99,7,1,7,0.00
2013-7-18,76,64,56,61,54,50,84,73,57,30.04,29.93,7,1,7,0.00
2013-7-19,73,62,57,59,55,52,85,76,62,29.95,29.83,7,1,7,0.00
2013-7-20,68,60,56,58,54,52,87,79,68,29.85,29.78,7,1,7,0.00
2013-7-21,75,63,56,61,55,52,86,75,61,29.89,29.77,7,1,7,0.00
2013-7-22,71,65,59,61,57,52,84,77,70,29.94,29.86,6,1,6,0.00
2013-7-23,78,66,60,63,58,54,88,75,57,29.98,29.93,7,1,7,0.00
2013-7-24,76,65,58,62,57,54,86,76,59,29.97,29.89,8,1,8,0.00
2013-7-25,74,64,58,61,56,53,87,76,61,30.02,29.92,7,1,7,0.00
2013-7-26,72,63,57,60,56,53,87,77,65,30.08,30.00,7,1,7,0.00
2013-7-27,70,62,58,60,55,53,88,79,66,30.02,29.87,7,1,7,0.01
2013-7-28,67,60,57,58,54,52,87,81,72,29.88,29.83,6,1,6,0.00
2013-7-29,68,61,58,58,54,52,83,77,67,30.01,29.86,7,1,7,0.00
2013-7-30,72,63,58,58,54,52,81,73,60,30.08,30.00,8,2,8,0.00
2013-7-31,74,63,58,60,54,50,82,73,59,30.08,30.00,7,2,7,0.00
2013-8-1,78,64,51,60,53,45,85,69,52,30.06,29.93,7,1,7,0.00
2013-8-2,74,61,52,60,52,46,83,73,56,29.97,29.89,7,2,7,0.00
2013-8-3,68,60,56,57,53,51,85,79,68,29.97,29.92,6,0,6,0.00
2013-8-4,70,60,56,59,54,52,87,79,65,29.99,29.94,7,1,7,0.01
2013-8-5,75,62,56,61,54,51,86,75,58,30.00,29.92,7,1,7,0.00
2013-8-6,72,62,57,59,54,52,86,77,63,30.03,29.95,8,1,8,0.00
2013-8-7,73,64,59,59,56,53,87,74,59,30.08,29.99,7,1,7,0.00
2013-8-8,72,63,59,60,56,53,85,77,64,30.02,29.90,7,1,7,0.00
2013-8-9,76,65,58,61,56,52,81,73,58,29.98,29.90,6,2,6,0.00
2013-8-10,79,66,60,63,57,54,83,74,56,30.01,29.96,8,2,9,0.00
2013-8-11,76,65,59,62,56,53,84,75,59,30.00,29.92,7,2,7,0.00
2013-8-12,76,64,58,62,56,53,85,75,59,29.98,29.92,6,1,6,0.00
2013-8-13,78,64,54,62,55,49,86,73,53,29.96,29.89,7,1,7,0.00
2013-8-14,80,66,54,61,55,48,86,70,50,29.96,29.87,6,1,6,0.00
2013-8-15,88,71,59,66,59,53,87,69,47,29.94,29.87,8,2,9,0.00
2013-8-16,87,70,61,68,60,55,85,71,49,29.96,29.89,12,1,12,0.00
2013-8-17,74,65,58,61,57,53,85,75,63,29.98,29.87,5,1,5,0.00
2013-8-18,77,66,59,63,58,54,87,76,59,29.89,29.78,6,1,6,0.00
2013-8-19,75,65,58,62,56,53,86,76,60,29.91,29.81,7,1,7,0.00
2013-8-20,71,62,58,60,56,53,87,80,67,29.91,29.84,8,2,8,0.00
2013-8-21,75,65,58,60,55,53,83,73,57,29.92,29.84,7,1,7,0.00
2013-8-22,78,67,58,60,56,51,80,68,54,29.94,29.85,7,1,7,0.00
2013-8-23,77,65,56,61,55,50,84,71,55,29.91,29.79,7,2,7,0.00
2013-8-24,78,66,55,62,56,50,85,71,56,29.88,29.80,6,1,6,0.00
2013-8-25,82,68,60,65,59,54,85,73,55,29.93,29.86,7,2,7,0.00
2013-8-26,83,70,62,64,59,54,82,69,50,29.97,29.85,7,2,7,0.00
2013-8-27,81,67,56,60,55,48,76,66,47,29.89,29.78,6,2,6,0.00
2013-8-28,86,69,57,64,58,52,83,69,46,29.93,29.83,7,2,7,0.00
2013-8-29,84,70,62,66,60,55,83,71,53,30.01,29.93,6,2,6,0.00
2013-8-30,88,72,60,68,59,54,84,67,46,30.01,29.87,7,1,7,0.00
2013-8-31,84,69,59,63,56,52,82,66,42,29.95,29.85,7,1,7,0.00
2013-9-1,87,71,61,64,58,55,83,66,39,29.91,29.83,7,1,7,0.00
2013-9-2,85,72,65,66,60,57,78,66,47,29.93,29.83,6,1,6,0.00
2013-9-3,86,72,60,62,56,53,78,61,38,29.97,29.88,10,2,10,0.00
2013-9-4,84,70,59,61,56,52,79,62,40,30.01,29.89,12,3,12,0.00
2013-9-5,83,69,59,62,55,51,81,63,40,29.99,29.90,12,2,12,0.00
2013-9-6,91,72,56,61,54,49,78,57,32,29.97,29.77,6,2,6,0.00
2013-9-7,83,68,61,60,55,49,79,63,43,29.86,29.80,7,2,7,0.00
2013-9-8,75,65,59,62,57,54,85,77,63,29.86,29.76,7,1,7,0.00
2013-9-9,76,65,58,62,57,54,86,76,60,29.79,29.71,7,1,7,0.00
2013-9-10,64,62,59,59,57,55,90,85,82,29.89,29.75,4,0,4,0.02
2013-9-11,71,64,59,61,57,53,85,79,67,29.98,29.89,6,1,6,0.00
2013-9-12,78,66,58,65,58,52,86,76,61,29.95,29.85,7,1,7,0.00
2013-9-13,76,65,57,62,57,52,87,76,61,29.89,29.74,6,1,6,0.00
2013-9-14,76,64,54,61,55,48,86,72,58,29.80,29.70,6,1,6,0.00
2013-9-15,79,66,55,61,56,49,84,70,55,29.83,29.75,7,2,7,0.00
2013-9-16,81,68,58,63,57,52,85,68,47,29.86,29.75,9,2,9,0.00
2013-9-17,79,66,58,61,53,49,84,65,41,29.87,29.82,13,2,13,0.00
2013-9-18,83,66,54,60,52,47,81,62,38,29.87,29.77,10,2,10,0.00
2013-9-19,90,69,53,57,49,43,68,52,21,29.83,29.69,5,2,6,0.00
2013-9-20,79,65,53,61,53,42,81,66,54,29.86,29.74,8,2,9,0.00
2013-9-21,63,61,56,60,57,52,92,88,81,29.88,29.80,5,1,5,0.48
2013-9-22,71,62,51,62,54,48,91,78,56,29.96,29.88,10,2,10,0.10
2013-9-23,81,68,54,62,55,49,84,67,48,29.97,29.87,7,2,7,0.00
2013-9-24,80,67,59,62,54,49,80,65,42,29.96,29.88,16,3,16,0.00
2013-9-25,74,62,54,53,48,44,78,60,38,29.91,29.80,13,3,13,0.00
2013-9-26,76,62,49,54,45,40,78,57,32,29.95,29.79,8,2,9,0.00
2013-9-27,80,65,51,49,42,37,64,46,31,30.04,29.94,7,2,7,0.00
2013-9-28,83,67,53,50,43,37,62,44,24,30.04,29.94,6,2,6,0.00
2013-9-29,82,67,56,60,53,47,75,62,44,30.07,29.98,5,1,5,0.00
2013-9-30,79,68,57,63,57,51,83,69,55,30.05,29.92,7,2,7,0.00
2013-10-1,73,64,56,56,51,45,76,63,49,29.99,29.89,7,2,7,0.00
2013-10-2,73,62,52,57,49,43,77,64,42,29.98,29.88,8,2,8,0.00
2013-10-3,77,62,49,48,40,34,72,48,25,30.00,29.89,10,2,10,0.00
2013-10-4,84,67,52,42,37,33,58,35,21,30.05,29.90,8,2,8,0.00
2013-10-5,86,70,55,44,35,29,44,29,13,30.13,30.04,8,2,8,0.00
2013-10-6,86,70,57,44,35,32,39,30,15,30.07,29.96,6,2,6,0.00
2013-10-7,78,64,54,50,41,32,69,44,28,29.97,29.86,6,1,6,0.00
2013-10-8,68,58,50,54,48,41,80,70,59,29.88,29.71,6,1,6,0.00
2013-10-9,66,58,52,52,47,43,77,69,55,29.74,29.60,8,1,8,0.00
2013-10-10,59,54,49,51,47,42,81,77,73,29.99,29.74,5,1,5,0.00
2013-10-11,67,57,52,54,49,45,81,74,60,30.05,29.94,7,1,7,0.00
2013-10-12,66,55,48,55,48,42,85,76,64,29.98,29.88,6,1,6,0.00
2013-10-13,67,56,49,54,49,43,86,77,62,30.02,29.89,5,1,5,0.00
2013-10-14,80,63,49,54,45,40,78,55,32,30.04,29.92,7,1,7,0.00
2013-10-15,82,66,51,48,40,36,57,41,24,29.97,29.87,6,1,6,0.00
2013-10-16,83,67,54,47,38,34,50,36,22,30.02,29.95,8,2,8,0.00
2013-10-17,83,65,54,50,41,33,60,42,22,30.03,29.90,6,2,6,0.00
2013-10-18,81,64,51,48,41,33,68,45,22,30.00,29.92,6,2,6,0.00
2013-10-19,77,60,50,52,46,39,77,61,39,30.02,29.95,5,1,5,0.00
2013-10-20,68,57,47,53,47,41,83,71,53,30.00,29.87,6,1,6,0.00
2013-10-21,69,57,49,55,48,44,84,73,53,29.96,29.88,5,1,5,0.00
2013-10-22,66,56,48,54,48,42,84,76,61,29.97,29.90,6,1,6,0.00
2013-10-23,62,54,50,54,48,45,86,82,73,29.94,29.88,6,1,6,0.00
2013-10-24,60,54,50,52,48,45,87,83,75,30.06,29.93,6,1,6,0.00
2013-10-25,67,56,47,55,48,42,86,76,63,30.11,30.03,5,1,5,0.00
2013-10-26,70,58,48,56,49,42,82,74,55,30.09,29.97,5,1,5,0.00
2013-10-27,62,55,51,54,49,47,88,81,69,30.00,29.71,12,2,12,0.00
2013-10-28,65,58,53,52,49,47,84,73,54,29.83,29.66,13,2,13,0.03
2013-10-29,61,55,49,55,50,44,89,84,72,30.01,29.83,5,1,5,0.21
2013-10-30,68,56,46,56,47,41,86,74,56,30.10,30.01,7,1,7,0.00
2013-10-31,71,58,48,56,47,42,83,68,50,30.12,30.01,6,1,6,0.00
2013-11-1,75,61,49,54,45,40,76,58,39,30.07,29.97,5,2,5,0.00
2013-11-2,69,58,48,50,43,36,71,60,46,29.97,29.87,5,2,5,0.00
2013-11-3,70,56,47,47,39,33,80,55,29,29.97,29.85,6,2,6,0.00
2013-11-4,69,56,45,43,35,32,66,48,29,30.00,29.85,9,2,9,0.00
2013-11-5,69,56,46,50,41,36,78,58,40,30.17,30.00,6,1,6,0.00
2013-11-6,76,61,49,50,39,35,62,45,28,30.19,30.10,6,1,6,0.00
2013-11-7,68,58,52,46,40,35,68,52,43,30.11,30.02,5,1,5,0.00
2013-11-8,70,58,49,53,46,39,73,64,51,30.04,29.89,6,1,6,0.00
2013-11-9,71,57,50,52,47,42,79,70,46,30.02,29.92,5,1,5,0.00
2013-11-10,65,56,52,54,48,46,81,75,63,30.08,29.99,5,1,5,0.00
2013-11-11,67,57,47,53,48,42,85,73,54,30.13,30.03,5,1,5,0.00
2013-11-12,74,62,54,56,49,44,80,65,45,30.21,30.10,6,1,6,0.00
2013-11-13,72,59,50,55,48,42,81,68,49,30.20,30.05,5,1,5,0.00
2013-11-14,61,53,47,53,48,41,88,82,76,30.08,29.86,5,1,5,0.00
2013-11-15,63,53,46,52,46,40,86,75,64,29.86,29.69,6,1,6,0.00
2013-11-16,61,52,44,50,44,38,84,75,63,29.90,29.75,9,1,9,0.00
2013-11-17,62,54,48,53,46,43,85,76,65,30.06,29.89,6,1,6,0.00
2013-11-18,61,52,46,51,45,40,85,77,68,30.11,30.04,5,1,5,0.00
2013-11-19,61,55,49,53,49,43,89,82,74,30.07,29.93,5,1,5,0.41
2013-11-20,58,56,51,56,54,48,92,91,89,29.93,29.80,2,0,2,0.43
2013-11-21,59,53,50,51,46,37,93,77,58,29.90,29.83,9,1,9,0.01
2013-11-22,59,52,46,42,36,32,68,56,42,29.96,29.87,6,1,6,0.00
2013-11-23,64,52,44,50,42,35,82,70,54,30.07,29.92,7,2,7,0.00
2013-11-24,64,52,43,51,43,38,82,72,54,30.20,30.06,6,1,6,0.00
2013-11-25,67,54,44,52,43,38,81,68,49,30.25,30.18,5,2,5,0.00
2013-11-26,68,56,47,50,44,38,73,65,47,30.19,29.97,5,1,5,0.00
2013-11-27,66,55,48,52,45,41,78,67,51,29.97,29.79,6,2,6,0.00
2013-11-28,66,56,49,51,44,41,77,66,49,30.03,29.80,5,2,5,0.00
2013-11-29,70,56,48,50,45,40,79,68,45,30.17,30.02,5,1,5,0.00
2013-11-30,69,53,44,51,43,37,78,69,49,30.21,30.12,5,1,5,0.00
2013-12-1,70,56,46,52,44,39,78,64,42,30.27,30.15,7,1,7,0.00
2013-12-2,64,54,47,52,45,39,80,71,58,30.18,29.94,10,2,10,0.00
2013-12-3,56,50,41,48,41,32,86,71,50,29.94,29.79,11,2,11,0.00
2013-12-4,55,44,36,37,31,28,73,62,45,30.02,29.88,8,2,8,0.00
2013-12-5,53,41,33,35,29,24,71,62,46,30.12,30.02,6,1,6,0.00
2013-12-6,52,44,34,47,35,26,90,71,58,30.15,29.90,7,2,7,0.12
2013-12-7,52,45,36,48,37,30,90,75,52,30.19,29.86,14,3,14,0.16
2013-12-8,49,40,34,38,30,25,81,70,56,30.24,30.13,5,1,5,0.00
2013-12-9,54,42,32,32,27,23,70,57,40,30.33,30.23,6,1,6,0.00
2013-12-10,58,45,34,37,29,25,68,56,37,30.32,30.11,6,1,6,0.00
2013-12-11,62,48,39,41,32,28,64,53,36,30.15,30.09,5,1,5,0.00
2013-12-12,59,47,40,41,32,28,66,57,39,30.19,30.11,6,2,6,0.00
2013-12-13,56,47,38,44,36,31,78,67,60,30.26,30.17,5,1,5,0.00
2013-12-14,64,50,41,46,38,32,75,63,46,30.29,30.21,5,2,5,0.00
2013-12-15,66,54,44,46,38,32,65,56,42,30.27,30.14,5,2,5,0.00
2013-12-16,71,58,49,43,37,32,59,47,31,30.14,30.03,5,2,5,0.00
2013-12-17,71,58,50,47,38,33,59,48,33,30.08,29.95,5,1,5,0.00
2013-12-18,60,53,47,50,44,39,80,70,59,29.97,29.76,7,1,7,0.00
2013-12-19,58,51,44,44,38,33,81,64,46,29.87,29.68,10,2,10,0.00
2013-12-20,59,48,39,36,29,21,66,48,28,29.95,29.86,12,2,12,0.00
2013-12-21,59,49,41,43,36,26,75,61,46,30.03,29.91,5,2,5,0.00
2013-12-22,61,50,43,49,42,36,82,75,57,30.24,30.03,5,1,5,0.00
2013-12-23,64,52,44,51,42,38,81,70,54,30.31,30.23,5,1,5,0.00
2013-12-24,67,55,46,49,41,36,71,60,43,30.25,30.12,5,1,5,0.00
2013-12-25,71,56,46,49,38,33,63,52,35,30.19,30.11,6,2,6,0.00
2013-12-26,74,58,48,45,37,33,60,47,28,30.16,30.07,6,2,6,0.00
2013-12-27,67,56,47,43,36,30,57,48,38,30.14,30.04,6,1,6,0.00
2013-12-28,64,53,44,45,34,29,60,50,33,30.06,29.95,8,2,8,0.00
2013-12-29,68,53,42,41,32,28,57,46,29,30.11,30.02,5,1,5,0.00
2013-12-30,65,53,44,42,32,28,55,46,32,30.21,30.11,6,2,6,0.00
2013-12-31,63,51,41,43,34,25,65,53,45,30.21,30.07,5,1,5,0.00
2014-1-1,65,53,43,45,37,30,67,55,44,30.14,30.04,5,1,5,0.00
2014-1-2,68,56,46,46,38,32,61,52,40,30.09,29.98,5,1,5,0.00